sensor_id;sensor_type;location;lat;lon;timestamp;P1;durP1;ratioP1;P2;durP2;ratioP2
82028;SDS011;71590;52.216;13.448;2024-01-15T00:00:03;7.23;;;6.27;;
82028;SDS011;71590;52.216;13.448;2024-01-15T00:02:35;8.63;;;7.10;;
82028;SDS011;71590;52.216;13.448;2024-01-15T00:05:02;9.10;;;7.73;;
82028;SDS011;71590;52.216;13.448;2024-01-15T00:07:28;8.77;;;7.53;;
82028;SDS011;71590;52.216;13.448;2024-01-15T00:09:55;8.53;;;7.50;;
82028;SDS011;71590;52.216;13.448;2024-01-15T00:12:21;9.03;;;7.80;;
82028;SDS011;71590;52.216;13.448;2024-01-15T00:14:48;8.20;;;7.30;;
82028;SDS011;71590;52.216;13.448;2024-01-15T00:17:14;9.30;;;6.83;;
82028;SDS011;71590;52.216;13.448;2024-01-15T00:19:41;9.87;;;7.70;;
82028;SDS011;71590;52.216;13.448;2024-01-15T00:22:07;10.80;;;7.57;;
82028;SDS011;71590;52.216;13.448;2024-01-15T00:24:34;9.30;;;7.53;;
82028;SDS011;71590;52.216;13.448;2024-01-15T00:27:00;9.00;;;7.73;;
82028;SDS011;71590;52.216;13.448;2024-01-15T00:29:26;9.90;;;7.23;;
82028;SDS011;71590;52.216;13.448;2024-01-15T00:31:53;8.70;;;7.77;;
82028;SDS011;71590;52.216;13.448;2024-01-15T00:34:19;10.33;;;7.80;;
82028;SDS011;71590;52.216;13.448;2024-01-15T00:36:46;9.67;;;7.97;;
82028;SDS011;71590;52.216;13.448;2024-01-15T00:39:12;9.53;;;8.50;;
82028;SDS011;71590;52.216;13.448;2024-01-15T00:41:39;11.77;;;8.30;;
82028;SDS011;71590;52.216;13.448;2024-01-15T00:44:05;9.87;;;8.33;;
82028;SDS011;71590;52.216;13.448;2024-01-15T00:46:33;10.40;;;8.57;;
82028;SDS011;71590;52.216;13.448;2024-01-15T00:48:59;10.87;;;8.27;;
82028;SDS011;71590;52.216;13.448;2024-01-15T00:51:26;11.27;;;8.90;;
82028;SDS011;71590;52.216;13.448;2024-01-15T00:53:52;13.23;;;9.17;;
82028;SDS011;71590;52.216;13.448;2024-01-15T00:56:19;13.97;;;9.57;;
82028;SDS011;71590;52.216;13.448;2024-01-15T00:58:45;10.37;;;8.87;;
82028;SDS011;71590;52.216;13.448;2024-01-15T01:01:11;10.77;;;8.67;;
82028;SDS011;71590;52.216;13.448;2024-01-15T01:03:38;11.00;;;9.03;;
82028;SDS011;71590;52.216;13.448;2024-01-15T01:06:05;10.27;;;7.97;;
82028;SDS011;71590;52.216;13.448;2024-01-15T01:08:31;9.77;;;8.40;;
82028;SDS011;71590;52.216;13.448;2024-01-15T01:10:58;9.67;;;8.17;;
82028;SDS011;71590;52.216;13.448;2024-01-15T01:13:24;9.37;;;8.30;;
82028;SDS011;71590;52.216;13.448;2024-01-15T01:15:50;9.03;;;7.47;;
82028;SDS011;71590;52.216;13.448;2024-01-15T01:18:17;9.13;;;7.30;;
82028;SDS011;71590;52.216;13.448;2024-01-15T01:20:43;8.67;;;7.47;;
82028;SDS011;71590;52.216;13.448;2024-01-15T01:23:10;7.83;;;7.03;;
82028;SDS011;71590;52.216;13.448;2024-01-15T01:25:36;10.87;;;7.47;;
82028;SDS011;71590;52.216;13.448;2024-01-15T01:28:03;9.00;;;8.10;;
82028;SDS011;71590;52.216;13.448;2024-01-15T01:30:29;9.97;;;8.43;;
82028;SDS011;71590;52.216;13.448;2024-01-15T01:32:56;9.57;;;8.57;;
82028;SDS011;71590;52.216;13.448;2024-01-15T01:35:22;8.93;;;8.03;;
82028;SDS011;71590;52.216;13.448;2024-01-15T01:37:49;9.37;;;7.97;;
82028;SDS011;71590;52.216;13.448;2024-01-15T01:40:15;10.87;;;8.63;;
82028;SDS011;71590;52.216;13.448;2024-01-15T01:42:42;9.33;;;8.43;;
82028;SDS011;71590;52.216;13.448;2024-01-15T01:45:08;9.60;;;7.73;;
82028;SDS011;71590;52.216;13.448;2024-01-15T01:47:35;9.37;;;8.17;;
82028;SDS011;71590;52.216;13.448;2024-01-15T01:50:02;10.47;;;7.70;;
82028;SDS011;71590;52.216;13.448;2024-01-15T01:52:29;10.40;;;8.07;;
82028;SDS011;71590;52.216;13.448;2024-01-15T01:54:55;9.80;;;8.00;;
82028;SDS011;71590;52.216;13.448;2024-01-15T01:57:22;7.97;;;7.03;;
82028;SDS011;71590;52.216;13.448;2024-01-15T01:59:48;11.60;;;8.77;;
82028;SDS011;71590;52.216;13.448;2024-01-15T02:02:15;9.43;;;8.03;;
82028;SDS011;71590;52.216;13.448;2024-01-15T02:04:41;10.70;;;8.20;;
82028;SDS011;71590;52.216;13.448;2024-01-15T02:07:08;8.37;;;6.93;;
82028;SDS011;71590;52.216;13.448;2024-01-15T02:09:36;7.90;;;6.93;;
82028;SDS011;71590;52.216;13.448;2024-01-15T02:12:03;7.40;;;6.67;;
82028;SDS011;71590;52.216;13.448;2024-01-15T02:14:29;9.10;;;6.40;;
82028;SDS011;71590;52.216;13.448;2024-01-15T02:16:56;8.03;;;6.37;;
82028;SDS011;71590;52.216;13.448;2024-01-15T02:19:22;8.70;;;7.27;;
82028;SDS011;71590;52.216;13.448;2024-01-15T02:21:49;9.30;;;7.70;;
82028;SDS011;71590;52.216;13.448;2024-01-15T02:24:15;8.17;;;7.37;;
82028;SDS011;71590;52.216;13.448;2024-01-15T02:26:42;8.83;;;7.40;;
82028;SDS011;71590;52.216;13.448;2024-01-15T02:29:08;8.97;;;7.23;;
82028;SDS011;71590;52.216;13.448;2024-01-15T02:31:38;9.00;;;7.30;;
82028;SDS011;71590;52.216;13.448;2024-01-15T02:34:05;7.30;;;6.53;;
82028;SDS011;71590;52.216;13.448;2024-01-15T02:36:32;7.47;;;6.33;;
82028;SDS011;71590;52.216;13.448;2024-01-15T02:38:58;8.23;;;6.83;;
82028;SDS011;71590;52.216;13.448;2024-01-15T02:41:25;8.77;;;6.27;;
82028;SDS011;71590;52.216;13.448;2024-01-15T02:43:51;8.50;;;7.27;;
82028;SDS011;71590;52.216;13.448;2024-01-15T02:46:17;7.33;;;6.57;;
82028;SDS011;71590;52.216;13.448;2024-01-15T02:48:44;8.27;;;6.23;;
82028;SDS011;71590;52.216;13.448;2024-01-15T02:51:11;6.97;;;6.27;;
82028;SDS011;71590;52.216;13.448;2024-01-15T02:53:37;7.33;;;6.37;;
82028;SDS011;71590;52.216;13.448;2024-01-15T02:56:04;7.90;;;6.40;;
82028;SDS011;71590;52.216;13.448;2024-01-15T02:58:30;7.47;;;6.13;;
82028;SDS011;71590;52.216;13.448;2024-01-15T03:00:57;6.70;;;5.90;;
82028;SDS011;71590;52.216;13.448;2024-01-15T03:03:24;7.17;;;6.47;;
82028;SDS011;71590;52.216;13.448;2024-01-15T03:05:51;6.93;;;6.07;;
82028;SDS011;71590;52.216;13.448;2024-01-15T03:08:17;6.83;;;5.80;;
82028;SDS011;71590;52.216;13.448;2024-01-15T03:10:44;7.47;;;6.17;;
82028;SDS011;71590;52.216;13.448;2024-01-15T03:13:10;8.60;;;6.63;;
82028;SDS011;71590;52.216;13.448;2024-01-15T03:15:36;7.27;;;6.57;;
82028;SDS011;71590;52.216;13.448;2024-01-15T03:18:03;8.37;;;7.43;;
82028;SDS011;71590;52.216;13.448;2024-01-15T03:20:30;8.77;;;7.60;;
82028;SDS011;71590;52.216;13.448;2024-01-15T03:22:56;8.47;;;7.07;;
82028;SDS011;71590;52.216;13.448;2024-01-15T03:25:23;6.97;;;6.27;;
82028;SDS011;71590;52.216;13.448;2024-01-15T03:27:49;7.50;;;6.60;;
82028;SDS011;71590;52.216;13.448;2024-01-15T03:30:15;7.83;;;6.20;;
82028;SDS011;71590;52.216;13.448;2024-01-15T03:32:42;7.30;;;6.07;;
82028;SDS011;71590;52.216;13.448;2024-01-15T03:35:08;6.77;;;5.67;;
82028;SDS011;71590;52.216;13.448;2024-01-15T03:37:35;6.87;;;5.60;;
82028;SDS011;71590;52.216;13.448;2024-01-15T03:40:01;6.80;;;5.40;;
82028;SDS011;71590;52.216;13.448;2024-01-15T03:42:29;7.37;;;5.30;;
82028;SDS011;71590;52.216;13.448;2024-01-15T03:44:55;9.10;;;6.10;;
82028;SDS011;71590;52.216;13.448;2024-01-15T03:47:21;9.33;;;6.03;;
82028;SDS011;71590;52.216;13.448;2024-01-15T03:49:48;6.10;;;5.17;;
82028;SDS011;71590;52.216;13.448;2024-01-15T03:52:14;7.63;;;5.27;;
82028;SDS011;71590;52.216;13.448;2024-01-15T03:54:41;5.73;;;5.03;;
82028;SDS011;71590;52.216;13.448;2024-01-15T03:57:07;4.90;;;4.40;;
82028;SDS011;71590;52.216;13.448;2024-01-15T03:59:34;6.43;;;4.63;;
82028;SDS011;71590;52.216;13.448;2024-01-15T04:02:00;7.27;;;5.23;;
82028;SDS011;71590;52.216;13.448;2024-01-15T04:04:27;6.57;;;4.60;;
82028;SDS011;71590;52.216;13.448;2024-01-15T04:06:53;5.47;;;4.30;;
82028;SDS011;71590;52.216;13.448;2024-01-15T04:09:20;6.60;;;4.97;;
82028;SDS011;71590;52.216;13.448;2024-01-15T04:11:46;7.43;;;5.20;;
82028;SDS011;71590;52.216;13.448;2024-01-15T04:14:13;5.37;;;4.70;;
82028;SDS011;71590;52.216;13.448;2024-01-15T04:16:39;6.70;;;3.97;;
82028;SDS011;71590;52.216;13.448;2024-01-15T04:19:05;6.57;;;4.67;;
82028;SDS011;71590;52.216;13.448;2024-01-15T04:21:32;6.87;;;3.97;;
82028;SDS011;71590;52.216;13.448;2024-01-15T04:23:59;5.73;;;4.47;;
82028;SDS011;71590;52.216;13.448;2024-01-15T04:26:25;6.33;;;4.10;;
82028;SDS011;71590;52.216;13.448;2024-01-15T04:28:53;6.07;;;4.37;;
82028;SDS011;71590;52.216;13.448;2024-01-15T04:31:26;6.43;;;4.13;;
82028;SDS011;71590;52.216;13.448;2024-01-15T04:33:56;5.97;;;4.53;;
82028;SDS011;71590;52.216;13.448;2024-01-15T04:36:23;4.80;;;4.30;;
82028;SDS011;71590;52.216;13.448;2024-01-15T04:38:49;7.77;;;4.40;;
82028;SDS011;71590;52.216;13.448;2024-01-15T04:41:16;6.17;;;3.93;;
82028;SDS011;71590;52.216;13.448;2024-01-15T04:43:43;4.43;;;3.53;;
82028;SDS011;71590;52.216;13.448;2024-01-15T04:46:10;6.37;;;3.87;;
82028;SDS011;71590;52.216;13.448;2024-01-15T04:48:37;6.17;;;4.03;;
82028;SDS011;71590;52.216;13.448;2024-01-15T04:51:05;5.10;;;3.87;;
82028;SDS011;71590;52.216;13.448;2024-01-15T04:53:34;5.17;;;3.93;;
82028;SDS011;71590;52.216;13.448;2024-01-15T04:56:01;7.20;;;3.83;;
82028;SDS011;71590;52.216;13.448;2024-01-15T04:58:27;5.37;;;3.33;;
82028;SDS011;71590;52.216;13.448;2024-01-15T05:00:54;7.00;;;3.73;;
82028;SDS011;71590;52.216;13.448;2024-01-15T05:03:21;5.23;;;3.57;;
82028;SDS011;71590;52.216;13.448;2024-01-15T05:05:48;5.40;;;3.20;;
82028;SDS011;71590;52.216;13.448;2024-01-15T05:08:15;5.33;;;3.63;;
82028;SDS011;71590;52.216;13.448;2024-01-15T05:10:41;4.80;;;3.63;;
82028;SDS011;71590;52.216;13.448;2024-01-15T05:13:08;6.13;;;3.50;;
82028;SDS011;71590;52.216;13.448;2024-01-15T05:15:35;6.13;;;3.40;;
82028;SDS011;71590;52.216;13.448;2024-01-15T05:18:02;7.13;;;3.43;;
82028;SDS011;71590;52.216;13.448;2024-01-15T05:20:28;4.80;;;3.30;;
82028;SDS011;71590;52.216;13.448;2024-01-15T05:22:55;5.07;;;3.77;;
82028;SDS011;71590;52.216;13.448;2024-01-15T05:25:21;4.90;;;3.00;;
82028;SDS011;71590;52.216;13.448;2024-01-15T05:27:48;6.17;;;3.50;;
82028;SDS011;71590;52.216;13.448;2024-01-15T05:30:15;5.07;;;3.20;;
82028;SDS011;71590;52.216;13.448;2024-01-15T05:32:43;5.47;;;3.80;;
82028;SDS011;71590;52.216;13.448;2024-01-15T05:35:10;4.90;;;3.07;;
82028;SDS011;71590;52.216;13.448;2024-01-15T05:37:36;8.03;;;3.30;;
82028;SDS011;71590;52.216;13.448;2024-01-15T05:40:03;4.23;;;2.33;;
82028;SDS011;71590;52.216;13.448;2024-01-15T05:42:31;6.27;;;2.77;;
82028;SDS011;71590;52.216;13.448;2024-01-15T05:44:58;3.83;;;2.90;;
82028;SDS011;71590;52.216;13.448;2024-01-15T05:47:26;5.40;;;2.70;;
82028;SDS011;71590;52.216;13.448;2024-01-15T05:49:52;2.90;;;2.60;;
82028;SDS011;71590;52.216;13.448;2024-01-15T05:52:19;7.07;;;2.83;;
82028;SDS011;71590;52.216;13.448;2024-01-15T05:54:48;3.50;;;2.27;;
82028;SDS011;71590;52.216;13.448;2024-01-15T05:57:14;3.73;;;2.33;;
82028;SDS011;71590;52.216;13.448;2024-01-15T05:59:42;6.40;;;2.70;;
82028;SDS011;71590;52.216;13.448;2024-01-15T06:02:09;4.13;;;2.60;;
82028;SDS011;71590;52.216;13.448;2024-01-15T06:04:36;5.27;;;2.23;;
82028;SDS011;71590;52.216;13.448;2024-01-15T06:07:03;5.70;;;2.53;;
82028;SDS011;71590;52.216;13.448;2024-01-15T06:09:29;7.90;;;2.53;;
82028;SDS011;71590;52.216;13.448;2024-01-15T06:11:59;4.87;;;2.83;;
82028;SDS011;71590;52.216;13.448;2024-01-15T06:14:25;5.20;;;2.40;;
82028;SDS011;71590;52.216;13.448;2024-01-15T06:16:52;6.53;;;2.87;;
82028;SDS011;71590;52.216;13.448;2024-01-15T06:19:19;7.77;;;2.80;;
82028;SDS011;71590;52.216;13.448;2024-01-15T06:21:46;4.60;;;2.10;;
82028;SDS011;71590;52.216;13.448;2024-01-15T06:24:13;5.07;;;2.20;;
82028;SDS011;71590;52.216;13.448;2024-01-15T06:26:40;6.07;;;2.33;;
82028;SDS011;71590;52.216;13.448;2024-01-15T06:29:07;8.63;;;2.73;;
82028;SDS011;71590;52.216;13.448;2024-01-15T06:31:34;6.73;;;2.70;;
82028;SDS011;71590;52.216;13.448;2024-01-15T06:34:01;4.67;;;2.00;;
82028;SDS011;71590;52.216;13.448;2024-01-15T06:36:28;7.40;;;2.43;;
82028;SDS011;71590;52.216;13.448;2024-01-15T06:38:55;3.60;;;2.23;;
82028;SDS011;71590;52.216;13.448;2024-01-15T06:41:22;4.73;;;1.93;;
82028;SDS011;71590;52.216;13.448;2024-01-15T06:43:49;4.43;;;2.43;;
82028;SDS011;71590;52.216;13.448;2024-01-15T06:46:22;5.37;;;2.30;;
82028;SDS011;71590;52.216;13.448;2024-01-15T06:48:48;3.80;;;2.27;;
82028;SDS011;71590;52.216;13.448;2024-01-15T06:51:16;5.37;;;1.93;;
82028;SDS011;71590;52.216;13.448;2024-01-15T06:53:43;5.53;;;2.43;;
82028;SDS011;71590;52.216;13.448;2024-01-15T06:56:10;6.77;;;2.50;;
82028;SDS011;71590;52.216;13.448;2024-01-15T06:58:36;5.57;;;1.80;;
82028;SDS011;71590;52.216;13.448;2024-01-15T07:01:03;8.67;;;2.63;;
82028;SDS011;71590;52.216;13.448;2024-01-15T07:03:31;7.63;;;2.50;;
82028;SDS011;71590;52.216;13.448;2024-01-15T07:05:58;7.47;;;2.03;;
82028;SDS011;71590;52.216;13.448;2024-01-15T07:08:25;6.37;;;2.40;;
82028;SDS011;71590;52.216;13.448;2024-01-15T07:10:52;4.50;;;2.33;;
82028;SDS011;71590;52.216;13.448;2024-01-15T07:13:18;5.53;;;2.67;;
82028;SDS011;71590;52.216;13.448;2024-01-15T07:15:45;6.50;;;2.60;;
82028;SDS011;71590;52.216;13.448;2024-01-15T07:18:12;4.17;;;2.20;;
82028;SDS011;71590;52.216;13.448;2024-01-15T07:20:39;8.20;;;2.40;;
82028;SDS011;71590;52.216;13.448;2024-01-15T07:23:05;6.23;;;2.23;;
82028;SDS011;71590;52.216;13.448;2024-01-15T07:25:33;4.77;;;1.90;;
82028;SDS011;71590;52.216;13.448;2024-01-15T07:28:00;4.67;;;2.30;;
82028;SDS011;71590;52.216;13.448;2024-01-15T07:30:26;5.87;;;2.17;;
82028;SDS011;71590;52.216;13.448;2024-01-15T07:32:53;3.20;;;2.07;;
82028;SDS011;71590;52.216;13.448;2024-01-15T07:35:20;6.93;;;2.40;;
82028;SDS011;71590;52.216;13.448;2024-01-15T07:37:47;5.20;;;2.40;;
82028;SDS011;71590;52.216;13.448;2024-01-15T07:40:14;5.73;;;2.40;;
82028;SDS011;71590;52.216;13.448;2024-01-15T07:42:41;5.60;;;2.07;;
82028;SDS011;71590;52.216;13.448;2024-01-15T07:45:09;5.73;;;2.20;;
82028;SDS011;71590;52.216;13.448;2024-01-15T07:47:37;8.33;;;2.60;;
82028;SDS011;71590;52.216;13.448;2024-01-15T07:50:03;9.00;;;2.70;;
82028;SDS011;71590;52.216;13.448;2024-01-15T07:52:32;6.70;;;2.20;;
82028;SDS011;71590;52.216;13.448;2024-01-15T07:54:58;4.07;;;2.40;;
82028;SDS011;71590;52.216;13.448;2024-01-15T07:57:30;6.83;;;2.97;;
82028;SDS011;71590;52.216;13.448;2024-01-15T07:59:57;6.67;;;3.17;;
82028;SDS011;71590;52.216;13.448;2024-01-15T08:02:24;4.40;;;2.50;;
82028;SDS011;71590;52.216;13.448;2024-01-15T08:04:51;5.20;;;2.50;;
82028;SDS011;71590;52.216;13.448;2024-01-15T08:07:18;4.93;;;2.60;;
82028;SDS011;71590;52.216;13.448;2024-01-15T08:09:44;5.43;;;2.33;;
82028;SDS011;71590;52.216;13.448;2024-01-15T08:12:13;8.07;;;2.83;;
82028;SDS011;71590;52.216;13.448;2024-01-15T08:14:40;8.20;;;2.50;;
82028;SDS011;71590;52.216;13.448;2024-01-15T08:17:07;7.17;;;2.50;;
82028;SDS011;71590;52.216;13.448;2024-01-15T08:19:34;7.13;;;2.73;;
82028;SDS011;71590;52.216;13.448;2024-01-15T08:22:01;6.03;;;2.27;;
82028;SDS011;71590;52.216;13.448;2024-01-15T08:24:28;6.70;;;2.53;;
82028;SDS011;71590;52.216;13.448;2024-01-15T08:26:55;4.87;;;2.00;;
82028;SDS011;71590;52.216;13.448;2024-01-15T08:29:22;7.77;;;2.33;;
82028;SDS011;71590;52.216;13.448;2024-01-15T08:31:51;6.77;;;2.30;;
82028;SDS011;71590;52.216;13.448;2024-01-15T08:34:18;7.10;;;2.30;;
82028;SDS011;71590;52.216;13.448;2024-01-15T08:36:45;5.60;;;2.10;;
82028;SDS011;71590;52.216;13.448;2024-01-15T08:39:11;7.03;;;2.50;;
82028;SDS011;71590;52.216;13.448;2024-01-15T08:41:38;7.73;;;2.53;;
82028;SDS011;71590;52.216;13.448;2024-01-15T08:44:05;5.33;;;2.40;;
82028;SDS011;71590;52.216;13.448;2024-01-15T08:46:32;4.70;;;2.20;;
82028;SDS011;71590;52.216;13.448;2024-01-15T08:48:59;8.50;;;2.30;;
82028;SDS011;71590;52.216;13.448;2024-01-15T08:51:25;6.57;;;2.73;;
82028;SDS011;71590;52.216;13.448;2024-01-15T08:53:52;4.10;;;2.40;;
82028;SDS011;71590;52.216;13.448;2024-01-15T08:56:18;8.27;;;2.37;;
82028;SDS011;71590;52.216;13.448;2024-01-15T08:58:45;3.33;;;2.20;;
82028;SDS011;71590;52.216;13.448;2024-01-15T09:01:12;4.73;;;2.10;;
82028;SDS011;71590;52.216;13.448;2024-01-15T09:03:40;5.30;;;2.30;;
82028;SDS011;71590;52.216;13.448;2024-01-15T09:06:08;7.13;;;2.80;;
82028;SDS011;71590;52.216;13.448;2024-01-15T09:08:36;6.40;;;2.57;;
82028;SDS011;71590;52.216;13.448;2024-01-15T09:11:03;19.83;;;3.47;;
82028;SDS011;71590;52.216;13.448;2024-01-15T09:13:30;5.57;;;2.30;;
82028;SDS011;71590;52.216;13.448;2024-01-15T09:15:57;3.93;;;2.90;;
82028;SDS011;71590;52.216;13.448;2024-01-15T09:18:37;6.67;;;3.03;;
82028;SDS011;71590;52.216;13.448;2024-01-15T09:21:04;4.90;;;2.93;;
82028;SDS011;71590;52.216;13.448;2024-01-15T09:23:31;4.20;;;2.30;;
82028;SDS011;71590;52.216;13.448;2024-01-15T09:25:57;6.60;;;2.63;;
82028;SDS011;71590;52.216;13.448;2024-01-15T09:28:24;4.40;;;2.27;;
82028;SDS011;71590;52.216;13.448;2024-01-15T09:30:51;5.10;;;1.93;;
82028;SDS011;71590;52.216;13.448;2024-01-15T09:33:17;8.90;;;3.17;;
82028;SDS011;71590;52.216;13.448;2024-01-15T09:35:45;5.53;;;2.10;;
82028;SDS011;71590;52.216;13.448;2024-01-15T09:38:12;4.57;;;2.03;;
82028;SDS011;71590;52.216;13.448;2024-01-15T09:40:38;6.63;;;2.43;;
82028;SDS011;71590;52.216;13.448;2024-01-15T09:43:09;6.00;;;2.23;;
82028;SDS011;71590;52.216;13.448;2024-01-15T09:45:36;6.30;;;2.43;;
82028;SDS011;71590;52.216;13.448;2024-01-15T09:48:03;5.13;;;2.17;;
82028;SDS011;71590;52.216;13.448;2024-01-15T09:50:29;5.93;;;2.57;;
82028;SDS011;71590;52.216;13.448;2024-01-15T09:52:56;5.97;;;2.30;;
82028;SDS011;71590;52.216;13.448;2024-01-15T09:55:24;5.27;;;2.13;;
82028;SDS011;71590;52.216;13.448;2024-01-15T09:57:51;5.93;;;2.50;;
82028;SDS011;71590;52.216;13.448;2024-01-15T10:00:19;5.03;;;2.73;;
82028;SDS011;71590;52.216;13.448;2024-01-15T10:02:46;4.60;;;2.30;;
82028;SDS011;71590;52.216;13.448;2024-01-15T10:05:13;3.80;;;2.40;;
82028;SDS011;71590;52.216;13.448;2024-01-15T10:07:41;4.60;;;2.47;;
82028;SDS011;71590;52.216;13.448;2024-01-15T10:10:08;2.93;;;2.37;;
82028;SDS011;71590;52.216;13.448;2024-01-15T10:12:36;6.13;;;2.93;;
82028;SDS011;71590;52.216;13.448;2024-01-15T10:15:03;5.67;;;2.90;;
82028;SDS011;71590;52.216;13.448;2024-01-15T10:17:30;4.40;;;2.60;;
82028;SDS011;71590;52.216;13.448;2024-01-15T10:19:57;6.50;;;2.90;;
82028;SDS011;71590;52.216;13.448;2024-01-15T10:22:25;5.30;;;3.00;;
82028;SDS011;71590;52.216;13.448;2024-01-15T10:24:52;5.23;;;2.50;;
82028;SDS011;71590;52.216;13.448;2024-01-15T10:27:19;6.23;;;3.33;;
82028;SDS011;71590;52.216;13.448;2024-01-15T10:29:45;4.93;;;2.80;;
82028;SDS011;71590;52.216;13.448;2024-01-15T10:32:13;3.60;;;2.77;;
82028;SDS011;71590;52.216;13.448;2024-01-15T10:34:39;4.83;;;2.60;;
82028;SDS011;71590;52.216;13.448;2024-01-15T10:37:08;3.47;;;2.70;;
82028;SDS011;71590;52.216;13.448;2024-01-15T10:39:35;3.83;;;2.37;;
82028;SDS011;71590;52.216;13.448;2024-01-15T10:42:03;4.77;;;2.40;;
82028;SDS011;71590;52.216;13.448;2024-01-15T10:44:29;4.33;;;2.00;;
82028;SDS011;71590;52.216;13.448;2024-01-15T10:46:56;4.13;;;2.37;;
82028;SDS011;71590;52.216;13.448;2024-01-15T10:49:23;3.07;;;2.60;;
82028;SDS011;71590;52.216;13.448;2024-01-15T10:51:58;4.83;;;2.77;;
82028;SDS011;71590;52.216;13.448;2024-01-15T10:54:26;3.00;;;2.40;;
82028;SDS011;71590;52.216;13.448;2024-01-15T10:56:53;4.50;;;2.17;;
82028;SDS011;71590;52.216;13.448;2024-01-15T10:59:20;3.40;;;2.50;;
82028;SDS011;71590;52.216;13.448;2024-01-15T11:01:48;2.83;;;2.50;;
82028;SDS011;71590;52.216;13.448;2024-01-15T11:04:15;3.30;;;2.57;;
82028;SDS011;71590;52.216;13.448;2024-01-15T11:06:44;4.07;;;2.90;;
82028;SDS011;71590;52.216;13.448;2024-01-15T11:09:11;5.43;;;3.20;;
82028;SDS011;71590;52.216;13.448;2024-01-15T11:11:42;4.47;;;2.73;;
82028;SDS011;71590;52.216;13.448;2024-01-15T11:14:10;3.27;;;2.40;;
82028;SDS011;71590;52.216;13.448;2024-01-15T11:17:10;4.30;;;2.50;;
82028;SDS011;71590;52.216;13.448;2024-01-15T11:19:36;5.73;;;2.70;;
82028;SDS011;71590;52.216;13.448;2024-01-15T11:22:11;5.67;;;2.47;;
82028;SDS011;71590;52.216;13.448;2024-01-15T11:24:55;2.87;;;2.60;;
82028;SDS011;71590;52.216;13.448;2024-01-15T11:27:39;3.37;;;2.50;;
82028;SDS011;71590;52.216;13.448;2024-01-15T11:30:08;5.23;;;3.60;;
82028;SDS011;71590;52.216;13.448;2024-01-15T11:32:37;5.47;;;3.40;;
82028;SDS011;71590;52.216;13.448;2024-01-15T11:35:08;4.50;;;3.33;;
82028;SDS011;71590;52.216;13.448;2024-01-15T11:40:18;9.27;;;3.47;;
82028;SDS011;71590;52.216;13.448;2024-01-15T11:42:46;5.23;;;3.77;;
82028;SDS011;71590;52.216;13.448;2024-01-15T11:45:15;7.47;;;3.77;;
82028;SDS011;71590;52.216;13.448;2024-01-15T11:47:57;4.83;;;3.47;;
82028;SDS011;71590;52.216;13.448;2024-01-15T11:50:30;4.40;;;3.03;;
82028;SDS011;71590;52.216;13.448;2024-01-15T11:53:00;5.90;;;3.23;;
82028;SDS011;71590;52.216;13.448;2024-01-15T11:55:36;4.03;;;3.47;;
82028;SDS011;71590;52.216;13.448;2024-01-15T11:58:06;4.00;;;3.10;;
82028;SDS011;71590;52.216;13.448;2024-01-15T12:00:34;3.40;;;3.10;;
82028;SDS011;71590;52.216;13.448;2024-01-15T12:03:01;5.37;;;2.70;;
82028;SDS011;71590;52.216;13.448;2024-01-15T12:05:28;4.93;;;2.67;;
82028;SDS011;71590;52.216;13.448;2024-01-15T12:07:55;4.27;;;2.50;;
82028;SDS011;71590;52.216;13.448;2024-01-15T12:10:22;4.40;;;3.20;;
82028;SDS011;71590;52.216;13.448;2024-01-15T12:12:53;3.10;;;2.80;;
82028;SDS011;71590;52.216;13.448;2024-01-15T12:15:23;3.47;;;2.60;;
82028;SDS011;71590;52.216;13.448;2024-01-15T12:17:50;2.93;;;2.40;;
82028;SDS011;71590;52.216;13.448;2024-01-15T12:20:17;2.80;;;2.60;;
82028;SDS011;71590;52.216;13.448;2024-01-15T12:22:44;2.77;;;2.57;;
82028;SDS011;71590;52.216;13.448;2024-01-15T12:25:26;3.73;;;2.87;;
82028;SDS011;71590;52.216;13.448;2024-01-15T12:27:56;3.37;;;2.73;;
82028;SDS011;71590;52.216;13.448;2024-01-15T12:30:23;3.00;;;2.47;;
82028;SDS011;71590;52.216;13.448;2024-01-15T12:32:50;3.00;;;2.40;;
82028;SDS011;71590;52.216;13.448;2024-01-15T12:35:16;2.13;;;1.93;;
82028;SDS011;71590;52.216;13.448;2024-01-15T12:37:43;2.90;;;2.60;;
82028;SDS011;71590;52.216;13.448;2024-01-15T12:40:10;4.17;;;1.70;;
82028;SDS011;71590;52.216;13.448;2024-01-15T12:42:39;2.50;;;2.30;;
82028;SDS011;71590;52.216;13.448;2024-01-15T12:45:06;2.90;;;2.50;;
82028;SDS011;71590;52.216;13.448;2024-01-15T12:47:32;3.07;;;2.67;;
82028;SDS011;71590;52.216;13.448;2024-01-15T12:50:01;3.43;;;2.80;;
82028;SDS011;71590;52.216;13.448;2024-01-15T12:52:41;2.27;;;2.10;;
82028;SDS011;71590;52.216;13.448;2024-01-15T12:55:09;3.87;;;2.47;;
82028;SDS011;71590;52.216;13.448;2024-01-15T12:57:36;4.20;;;2.57;;
82028;SDS011;71590;52.216;13.448;2024-01-15T13:00:04;2.80;;;2.00;;
82028;SDS011;71590;52.216;13.448;2024-01-15T13:02:34;4.13;;;2.50;;
82028;SDS011;71590;52.216;13.448;2024-01-15T13:05:02;3.03;;;2.53;;
82028;SDS011;71590;52.216;13.448;2024-01-15T13:07:31;3.97;;;2.50;;
82028;SDS011;71590;52.216;13.448;2024-01-15T13:09:57;7.93;;;2.90;;
82028;SDS011;71590;52.216;13.448;2024-01-15T13:12:24;2.20;;;1.90;;
82028;SDS011;71590;52.216;13.448;2024-01-15T13:14:51;4.27;;;1.90;;
82028;SDS011;71590;52.216;13.448;2024-01-15T13:17:17;2.70;;;2.33;;
82028;SDS011;71590;52.216;13.448;2024-01-15T13:19:44;2.87;;;1.97;;
82028;SDS011;71590;52.216;13.448;2024-01-15T13:22:11;4.60;;;2.33;;
82028;SDS011;71590;52.216;13.448;2024-01-15T13:24:42;3.03;;;2.50;;
82028;SDS011;71590;52.216;13.448;2024-01-15T13:27:10;2.37;;;2.20;;
82028;SDS011;71590;52.216;13.448;2024-01-15T13:29:38;2.60;;;2.20;;
82028;SDS011;71590;52.216;13.448;2024-01-15T13:32:04;2.87;;;2.57;;
82028;SDS011;71590;52.216;13.448;2024-01-15T13:34:31;6.77;;;2.50;;
82028;SDS011;71590;52.216;13.448;2024-01-15T13:36:58;4.20;;;2.47;;
82028;SDS011;71590;52.216;13.448;2024-01-15T13:39:24;4.07;;;2.37;;
82028;SDS011;71590;52.216;13.448;2024-01-15T13:41:51;2.33;;;2.03;;
82028;SDS011;71590;52.216;13.448;2024-01-15T13:44:18;3.73;;;2.43;;
82028;SDS011;71590;52.216;13.448;2024-01-15T13:46:45;5.43;;;2.43;;
82028;SDS011;71590;52.216;13.448;2024-01-15T13:49:13;6.63;;;2.60;;
82028;SDS011;71590;52.216;13.448;2024-01-15T13:51:40;5.17;;;2.50;;
82028;SDS011;71590;52.216;13.448;2024-01-15T13:54:08;5.67;;;2.90;;
82028;SDS011;71590;52.216;13.448;2024-01-15T13:56:36;6.50;;;3.13;;
82028;SDS011;71590;52.216;13.448;2024-01-15T13:59:02;4.10;;;2.33;;
82028;SDS011;71590;52.216;13.448;2024-01-15T14:01:31;2.90;;;2.40;;
82028;SDS011;71590;52.216;13.448;2024-01-15T14:04:00;7.13;;;3.10;;
82028;SDS011;71590;52.216;13.448;2024-01-15T14:06:27;6.37;;;2.73;;
82028;SDS011;71590;52.216;13.448;2024-01-15T14:08:54;3.53;;;2.30;;
82028;SDS011;71590;52.216;13.448;2024-01-15T14:11:20;4.17;;;2.23;;
82028;SDS011;71590;52.216;13.448;2024-01-15T14:13:47;3.10;;;2.50;;
82028;SDS011;71590;52.216;13.448;2024-01-15T14:16:15;5.70;;;2.40;;
82028;SDS011;71590;52.216;13.448;2024-01-15T14:18:50;9.63;;;2.47;;
82028;SDS011;71590;52.216;13.448;2024-01-15T14:21:17;4.27;;;2.80;;
82028;SDS011;71590;52.216;13.448;2024-01-15T14:23:44;6.80;;;2.50;;
82028;SDS011;71590;52.216;13.448;2024-01-15T14:26:11;5.30;;;2.40;;
82028;SDS011;71590;52.216;13.448;2024-01-15T14:28:40;4.80;;;2.33;;
82028;SDS011;71590;52.216;13.448;2024-01-15T14:31:07;3.73;;;1.90;;
82028;SDS011;71590;52.216;13.448;2024-01-15T14:33:34;5.60;;;2.50;;
82028;SDS011;71590;52.216;13.448;2024-01-15T14:36:05;4.83;;;2.33;;